createdAt,value
2022-07-27T00:00:47.111Z,1.83
2022-07-27T00:03:13.783Z,1.67
2022-07-27T00:05:40.214Z,1.70
2022-07-27T00:08:06.979Z,1.37
2022-07-27T00:10:34.902Z,2.03
2022-07-27T00:13:01.331Z,1.77
2022-07-27T00:15:27.992Z,2.03
2022-07-27T00:17:55.344Z,2.00
2022-07-27T00:20:22.961Z,1.50
2022-07-27T00:22:54.856Z,1.70
2022-07-27T00:25:22.974Z,1.40
2022-07-27T00:27:49.518Z,1.43
2022-07-27T00:30:15.991Z,1.70
2022-07-27T00:32:42.361Z,1.90
2022-07-27T00:35:09.611Z,1.67
2022-07-27T00:37:36.106Z,1.67
2022-07-27T00:40:03.677Z,1.70
2022-07-27T00:42:31.128Z,1.90
2022-07-27T00:44:58.318Z,1.70
2022-07-27T00:47:25.486Z,1.77
2022-07-27T00:49:52.126Z,1.50
2022-07-27T00:52:19.536Z,2.27
2022-07-27T00:54:47.775Z,1.60
2022-07-27T00:57:15.258Z,1.83
2022-07-27T00:59:42.277Z,1.10
2022-07-27T01:02:11.356Z,1.80
2022-07-27T01:04:38.913Z,1.60
2022-07-27T01:07:06.398Z,1.40
2022-07-27T01:09:52.221Z,1.77
2022-07-27T01:12:19.527Z,2.20
2022-07-27T01:14:46.641Z,2.17
2022-07-27T01:17:13.037Z,2.27
2022-07-27T01:19:39.432Z,2.30
2022-07-27T01:22:06.730Z,2.10
2022-07-27T01:24:33.472Z,1.80
2022-07-27T01:27:01.647Z,2.23
2022-07-27T01:29:28.287Z,2.30
2022-07-27T01:31:55.138Z,2.50
2022-07-27T01:34:22.294Z,2.67
2022-07-27T01:36:48.950Z,2.60
2022-07-27T01:39:15.835Z,2.27
2022-07-27T01:41:42.605Z,1.90
2022-07-27T01:44:09.001Z,1.87
2022-07-27T01:46:35.696Z,1.90
2022-07-27T01:49:02.183Z,1.93
2022-07-27T01:51:28.616Z,1.80
2022-07-27T01:53:54.902Z,1.87
2022-07-27T01:56:21.250Z,2.10
2022-07-27T01:58:47.671Z,2.30
2022-07-27T02:01:14.196Z,2.10
2022-07-27T02:03:40.684Z,2.13
2022-07-27T02:06:07.253Z,2.03
2022-07-27T02:08:34.928Z,2.00
2022-07-27T02:11:19.886Z,1.70
2022-07-27T02:13:47.680Z,2.50
2022-07-27T02:16:16.439Z,2.67
2022-07-27T02:18:44.421Z,2.03
2022-07-27T02:21:10.841Z,2.10
2022-07-27T02:23:38.862Z,1.73
2022-07-27T02:26:06.119Z,2.30
2022-07-27T02:28:33.923Z,1.87
2022-07-27T02:31:00.535Z,2.43
2022-07-27T02:33:26.880Z,1.53
2022-07-27T02:35:53.787Z,1.80
2022-07-27T02:38:20.229Z,2.40
2022-07-27T02:40:46.836Z,2.00
2022-07-27T02:43:13.897Z,1.53
2022-07-27T02:45:40.290Z,2.00
2022-07-27T02:48:08.447Z,2.20
2022-07-27T02:50:34.957Z,2.37
2022-07-27T02:53:01.345Z,2.53
2022-07-27T02:55:27.768Z,2.50
2022-07-27T02:57:54.177Z,2.43
2022-07-27T03:00:20.543Z,2.57
2022-07-27T03:02:50.231Z,2.23
2022-07-27T03:05:17.456Z,2.10
2022-07-27T03:07:43.787Z,2.10
2022-07-27T03:10:10.180Z,2.00
2022-07-27T03:12:36.588Z,2.00
2022-07-27T03:15:03.934Z,2.20
2022-07-27T03:17:30.256Z,2.30
2022-07-27T03:19:56.660Z,2.93
2022-07-27T03:22:23.040Z,2.30
2022-07-27T03:24:49.461Z,1.53
2022-07-27T03:27:15.783Z,2.73
2022-07-27T03:29:42.132Z,2.33
2022-07-27T03:32:08.569Z,2.90
2022-07-27T03:34:35.001Z,2.57
2022-07-27T03:37:01.282Z,2.47
2022-07-27T03:39:27.811Z,2.27
2022-07-27T03:41:54.123Z,2.10
2022-07-27T03:44:20.466Z,2.87
2022-07-27T03:46:46.915Z,2.70
2022-07-27T03:49:14.729Z,2.53
2022-07-27T03:51:42.593Z,2.47
2022-07-27T03:54:09.328Z,2.33
2022-07-27T03:56:36.107Z,2.50
2022-07-27T03:59:02.576Z,2.73
2022-07-27T04:01:29.058Z,2.17
2022-07-27T04:03:55.506Z,2.93
2022-07-27T04:06:21.894Z,1.87
2022-07-27T04:08:48.267Z,2.53
2022-07-27T04:11:14.664Z,3.17
2022-07-27T04:13:44.232Z,2.50
2022-07-27T04:16:13.787Z,2.90
2022-07-27T04:18:40.192Z,2.17
2022-07-27T04:21:06.581Z,2.73
2022-07-27T04:23:37.952Z,2.67
2022-07-27T04:26:05.033Z,2.47
2022-07-27T04:28:32.472Z,2.23
2022-07-27T04:30:58.909Z,2.70
2022-07-27T04:33:25.256Z,2.17
2022-07-27T04:35:51.630Z,2.43
2022-07-27T04:38:18.006Z,2.30
2022-07-27T04:40:44.370Z,2.70
2022-07-27T04:43:10.753Z,2.53
2022-07-27T04:45:38.743Z,3.00
2022-07-27T04:48:09.284Z,3.33
2022-07-27T04:50:42.918Z,3.00
2022-07-27T04:53:10.627Z,3.20
2022-07-27T04:55:41.095Z,2.70
2022-07-27T04:58:07.445Z,2.80
2022-07-27T05:00:33.841Z,3.20
2022-07-27T05:03:00.256Z,3.03
2022-07-27T05:05:26.640Z,2.57
2022-07-27T05:07:53.243Z,2.93
2022-07-27T05:10:20.773Z,3.77
2022-07-27T05:12:48.220Z,3.50
2022-07-27T05:15:14.964Z,3.30
2022-07-27T05:17:41.329Z,3.50
2022-07-27T05:20:08.534Z,3.13
2022-07-27T05:22:39.160Z,2.93
2022-07-27T05:25:07.757Z,2.67
2022-07-27T05:27:34.188Z,2.50
2022-07-27T05:30:00.607Z,3.23
2022-07-27T05:32:27.042Z,2.50
2022-07-27T05:34:53.382Z,3.43
2022-07-27T05:37:19.760Z,3.00
2022-07-27T05:39:46.161Z,2.43
2022-07-27T05:42:12.537Z,3.77
2022-07-27T05:44:38.894Z,3.00
2022-07-27T05:47:06.141Z,2.50
2022-07-27T05:49:33.063Z,2.80
2022-07-27T05:51:59.525Z,2.90
2022-07-27T05:54:26.042Z,2.10
2022-07-27T05:56:52.478Z,1.70
2022-07-27T05:59:18.879Z,2.83
2022-07-27T06:01:45.203Z,2.50
2022-07-27T06:04:14.677Z,2.17
2022-07-27T06:06:59.760Z,1.60
2022-07-27T06:09:26.150Z,1.90
2022-07-27T06:11:52.530Z,1.67
2022-07-27T06:14:19.052Z,2.63
2022-07-27T06:16:45.536Z,1.90
2022-07-27T06:19:12.183Z,1.83
2022-07-27T06:21:38.708Z,1.70
2022-07-27T06:24:05.405Z,1.57
2022-07-27T06:26:31.766Z,1.63
2022-07-27T06:29:00.830Z,1.87
2022-07-27T06:31:28.433Z,1.90
2022-07-27T06:34:02.195Z,1.73
2022-07-27T06:36:28.569Z,1.40
2022-07-27T06:38:54.974Z,1.50
2022-07-27T06:41:21.434Z,1.37
2022-07-27T06:43:47.862Z,1.40
2022-07-27T06:46:14.337Z,1.33
2022-07-27T06:48:40.834Z,1.40
2022-07-27T06:51:07.383Z,1.70
2022-07-27T06:53:36.398Z,1.60
2022-07-27T06:56:04.055Z,1.93
2022-07-27T06:58:33.892Z,2.00
2022-07-27T07:01:02.159Z,1.50
2022-07-27T07:03:29.023Z,1.70
2022-07-27T07:05:55.569Z,1.80
2022-07-27T07:08:22.723Z,1.57
2022-07-27T07:10:49.664Z,1.37
2022-07-27T07:13:16.264Z,1.60
2022-07-27T07:15:43.576Z,1.43
2022-07-27T07:18:10.831Z,1.73
2022-07-27T07:20:37.314Z,1.37
2022-07-27T07:23:04.434Z,1.60
2022-07-27T07:25:31.223Z,1.50
2022-07-27T07:27:57.663Z,1.43
2022-07-27T07:30:24.349Z,1.33
2022-07-27T07:32:50.767Z,1.90
2022-07-27T07:35:17.398Z,1.83
2022-07-27T07:37:43.840Z,1.33
2022-07-27T07:40:41.493Z,1.33
2022-07-27T07:43:01.425Z,1.63
2022-07-27T07:45:29.348Z,1.20
2022-07-27T07:47:56.369Z,1.23
2022-07-27T07:50:23.111Z,1.20
2022-07-27T07:52:50.089Z,1.40
2022-07-27T07:55:19.315Z,1.10
2022-07-27T07:57:45.631Z,1.43
2022-07-27T08:00:12.461Z,1.40
2022-07-27T08:03:00.101Z,1.40
2022-07-27T08:05:27.910Z,1.13
2022-07-27T08:07:54.631Z,1.13
2022-07-27T08:10:22.215Z,1.10
2022-07-27T08:12:52.964Z,1.87
2022-07-27T08:15:19.795Z,2.00
2022-07-27T08:17:46.452Z,1.20
2022-07-27T08:20:14.556Z,1.40
2022-07-27T08:22:41.307Z,1.77
2022-07-27T08:25:08.498Z,2.33
2022-07-27T08:27:40.189Z,1.70
2022-07-27T08:30:09.156Z,1.60
2022-07-27T08:32:48.049Z,1.47
2022-07-27T08:35:17.183Z,1.20
2022-07-27T08:37:43.568Z,1.40
2022-07-27T08:42:57.576Z,1.10
2022-07-27T08:45:24.251Z,1.30
2022-07-27T08:47:50.681Z,1.33
2022-07-27T08:50:24.486Z,1.20
2022-07-27T08:52:53.828Z,1.60
2022-07-27T08:55:20.393Z,1.60
2022-07-27T08:57:46.757Z,1.63
2022-07-27T09:00:13.357Z,1.43
2022-07-27T09:02:41.151Z,1.80
2022-07-27T09:05:09.031Z,1.87
2022-07-27T09:07:35.561Z,1.90
2022-07-27T09:10:02.637Z,1.53
2022-07-27T09:12:31.044Z,1.77
2022-07-27T09:15:12.564Z,1.00
2022-07-27T09:17:48.495Z,1.67
2022-07-27T09:20:19.528Z,1.17
2022-07-27T09:22:46.343Z,1.10
2022-07-27T09:25:15.443Z,1.17
2022-07-27T09:27:45.577Z,1.63
2022-07-27T09:30:15.205Z,1.70
2022-07-27T09:33:02.256Z,1.50
2022-07-27T09:35:35.610Z,1.70
2022-07-27T09:38:16.837Z,1.47
2022-07-27T09:40:43.471Z,1.50
2022-07-27T09:44:12.137Z,1.20
2022-07-27T09:46:07.770Z,1.33
2022-07-27T09:48:34.531Z,1.20
2022-07-27T09:51:32.868Z,1.07
2022-07-27T09:53:50.019Z,1.07
2022-07-27T09:56:17.912Z,0.80
2022-07-27T09:58:51.450Z,1.00
2022-07-27T10:01:23.083Z,1.20
2022-07-27T10:03:50.904Z,1.30
2022-07-27T10:06:17.741Z,1.20
2022-07-27T10:08:45.153Z,1.50
2022-07-27T10:11:14.215Z,1.00
2022-07-27T10:13:43.516Z,1.00
2022-07-27T10:16:16.584Z,1.20
2022-07-27T10:19:18.476Z,1.00
2022-07-27T10:21:45.935Z,1.43
2022-07-27T10:24:28.688Z,1.20
2022-07-27T10:26:55.706Z,1.23
2022-07-27T10:29:22.778Z,1.60
2022-07-27T10:31:52.365Z,1.27
2022-07-27T10:34:37.310Z,1.43
2022-07-27T10:37:11.628Z,1.20
2022-07-27T10:39:42.942Z,1.37
2022-07-27T10:42:24.377Z,1.30
2022-07-27T10:45:02.730Z,1.30
2022-07-27T10:47:33.607Z,0.90
2022-07-27T10:50:19.716Z,1.63
2022-07-27T10:52:50.338Z,1.03
2022-07-27T10:55:32.057Z,1.20
2022-07-27T10:58:21.213Z,0.90
2022-07-27T11:00:54.823Z,1.10
2022-07-27T11:03:23.238Z,1.57
2022-07-27T11:07:04.641Z,1.50
2022-07-27T11:10:02.580Z,1.30
2022-07-27T11:11:54.212Z,1.20
2022-07-27T11:14:30.067Z,1.00
2022-07-27T11:17:12.316Z,1.20
2022-07-27T11:19:44.491Z,1.47
2022-07-27T11:22:28.232Z,1.20
2022-07-27T11:24:55.637Z,1.23
2022-07-27T11:27:25.194Z,1.00
2022-07-27T11:29:52.190Z,1.50
2022-07-27T11:32:20.375Z,1.40
2022-07-27T11:34:47.201Z,1.07
2022-07-27T11:37:14.695Z,0.87
2022-07-27T11:39:59.938Z,0.80
2022-07-27T11:42:39.847Z,1.30
2022-07-27T11:45:07.624Z,1.23
2022-07-27T11:47:34.281Z,1.40
2022-07-27T11:50:07.774Z,1.07
2022-07-27T11:52:34.539Z,1.30
2022-07-27T11:55:00.958Z,1.53
2022-07-27T11:57:32.289Z,1.10
2022-07-27T11:59:58.611Z,1.13
2022-07-27T12:02:27.089Z,1.20
2022-07-27T12:04:57.832Z,0.93
2022-07-27T12:07:29.812Z,0.97
2022-07-27T12:10:01.855Z,1.20
2022-07-27T12:12:29.040Z,0.90
2022-07-27T12:15:07.926Z,1.10
2022-07-27T12:17:55.639Z,0.93
2022-07-27T12:20:31.211Z,0.90
2022-07-27T12:23:03.055Z,0.93
2022-07-27T12:25:29.618Z,0.83
2022-07-27T12:28:05.643Z,0.80
2022-07-27T12:30:36.555Z,1.13
2022-07-27T12:33:04.529Z,0.97
2022-07-27T12:35:37.844Z,1.37
2022-07-27T12:38:07.187Z,1.00
2022-07-27T12:40:34.678Z,1.43
2022-07-27T12:43:06.418Z,1.30
2022-07-27T12:45:36.879Z,0.97
2022-07-27T12:48:07.679Z,0.90
2022-07-27T12:50:34.373Z,1.00
2022-07-27T12:53:00.673Z,1.17
2022-07-27T12:55:27.131Z,1.03
2022-07-27T12:57:57.122Z,1.20
2022-07-27T13:00:29.480Z,1.00
2022-07-27T13:02:59.741Z,0.90
2022-07-27T13:05:26.190Z,1.10
2022-07-27T13:07:53.272Z,1.00
2022-07-27T13:10:19.824Z,1.33
2022-07-27T13:12:47.720Z,1.10
2022-07-27T13:15:15.072Z,1.20
2022-07-27T13:17:43.818Z,1.67
2022-07-27T13:20:11.233Z,0.97
2022-07-27T13:22:38.671Z,1.07
2022-07-27T13:25:16.532Z,1.00
2022-07-27T13:27:44.055Z,1.00
2022-07-27T13:30:11.799Z,1.03
2022-07-27T13:32:38.517Z,1.03
2022-07-27T13:35:05.131Z,1.10
2022-07-27T13:37:31.454Z,1.60
2022-07-27T13:39:57.830Z,1.27
2022-07-27T13:42:25.919Z,1.03
2022-07-27T13:45:05.572Z,1.30
2022-07-27T13:47:34.664Z,0.90
2022-07-27T13:50:01.383Z,1.53
2022-07-27T13:52:27.711Z,1.20
2022-07-27T13:54:54.115Z,1.03
2022-07-27T13:57:20.664Z,1.40
2022-07-27T13:59:46.967Z,1.00
2022-07-27T14:02:13.492Z,0.80
2022-07-27T14:04:42.212Z,1.10
2022-07-27T14:07:10.100Z,0.90
2022-07-27T14:09:54.919Z,1.53
2022-07-27T14:12:21.249Z,1.03
2022-07-27T14:14:47.691Z,0.90
2022-07-27T14:17:14.129Z,1.43
2022-07-27T14:19:40.427Z,1.50
2022-07-27T14:22:10.511Z,1.20
2022-07-27T14:24:39.426Z,0.90
2022-07-27T14:27:06.363Z,1.00
2022-07-27T14:29:33.683Z,1.00
2022-07-27T14:32:00.571Z,1.10
2022-07-27T14:34:27.098Z,0.87
2022-07-27T14:36:53.697Z,1.20
2022-07-27T14:39:20.117Z,0.90
2022-07-27T14:41:46.750Z,0.90
2022-07-27T14:44:13.916Z,0.90
2022-07-27T14:46:40.437Z,1.00
2022-07-27T14:49:08.356Z,0.93
2022-07-27T14:51:36.318Z,0.90
2022-07-27T14:54:03.879Z,1.00
2022-07-27T14:56:30.235Z,1.20
2022-07-27T14:58:56.771Z,1.00
2022-07-27T15:01:23.507Z,1.33
2022-07-27T15:03:50.403Z,1.23
2022-07-27T15:06:17.239Z,1.00
2022-07-27T15:08:43.648Z,0.80
2022-07-27T15:11:10.818Z,1.00
2022-07-27T15:13:37.205Z,0.90
2022-07-27T15:16:04.077Z,1.23
2022-07-27T15:18:36.494Z,1.00
2022-07-27T15:21:08.536Z,0.73
2022-07-27T15:23:39.502Z,0.90
2022-07-27T15:26:06.125Z,1.07
2022-07-27T15:28:32.541Z,1.30
2022-07-27T15:30:59.298Z,0.80
2022-07-27T15:33:26.681Z,0.97
2022-07-27T15:35:53.386Z,1.00
2022-07-27T15:38:19.874Z,1.17
2022-07-27T15:40:47.323Z,1.00
2022-07-27T15:43:15.462Z,0.93
2022-07-27T15:45:42.764Z,0.90
2022-07-27T15:48:11.238Z,0.80
2022-07-27T15:50:38.288Z,0.80
2022-07-27T15:53:05.616Z,0.70
2022-07-27T15:55:32.270Z,0.87
2022-07-27T15:57:58.833Z,0.90
2022-07-27T16:00:25.715Z,1.03
2022-07-27T16:02:52.550Z,0.87
2022-07-27T16:05:20.350Z,0.83
2022-07-27T16:07:47.061Z,0.80
2022-07-27T16:10:13.447Z,0.80
2022-07-27T16:12:39.928Z,0.83
2022-07-27T16:15:06.947Z,0.90
2022-07-27T16:17:33.377Z,0.97
2022-07-27T16:19:59.915Z,0.90
2022-07-27T16:22:26.744Z,0.90
2022-07-27T16:24:53.040Z,0.97
2022-07-27T16:27:19.411Z,1.07
2022-07-27T16:29:45.846Z,0.70
2022-07-27T16:32:12.306Z,0.70
2022-07-27T16:34:39.415Z,0.70
2022-07-27T16:37:05.838Z,0.90
2022-07-27T16:39:33.460Z,0.80
2022-07-27T16:41:59.762Z,0.77
2022-07-27T16:44:26.064Z,1.00
2022-07-27T16:46:52.597Z,0.80
2022-07-27T16:49:19.282Z,1.10
2022-07-27T16:51:45.948Z,1.00
2022-07-27T16:54:12.938Z,0.87
2022-07-27T16:56:39.251Z,0.90
2022-07-27T16:59:05.719Z,0.90
2022-07-27T17:01:32.303Z,0.90
2022-07-27T17:03:58.988Z,1.20
2022-07-27T17:06:26.288Z,1.07
2022-07-27T17:08:53.038Z,0.90
2022-07-27T17:11:21.633Z,0.90
2022-07-27T17:13:49.368Z,1.03
2022-07-27T17:16:16.493Z,0.90
2022-07-27T17:18:42.913Z,1.20
2022-07-27T17:21:12.358Z,1.20
2022-07-27T17:23:40.904Z,1.40
2022-07-27T17:26:08.892Z,1.53
2022-07-27T17:28:38.730Z,1.23
2022-07-27T17:31:05.507Z,1.30
2022-07-27T17:33:32.172Z,1.03
2022-07-27T17:35:59.960Z,1.10
2022-07-27T17:38:26.536Z,1.17
2022-07-27T17:40:52.954Z,1.03
2022-07-27T17:43:19.285Z,1.20
2022-07-27T17:45:45.739Z,1.37
2022-07-27T17:48:12.109Z,1.53
2022-07-27T17:50:38.531Z,1.30
2022-07-27T17:53:04.914Z,1.33
2022-07-27T17:55:33.370Z,1.30
2022-07-27T17:57:59.672Z,0.90
2022-07-27T18:00:25.965Z,0.90
2022-07-27T18:02:52.421Z,1.00
2022-07-27T18:05:18.830Z,1.30
2022-07-27T18:07:45.164Z,1.47
2022-07-27T18:10:11.553Z,1.57
2022-07-27T18:12:37.869Z,1.63
2022-07-27T18:15:23.220Z,1.20
2022-07-27T18:17:49.578Z,1.20
2022-07-27T18:20:16.076Z,1.20
2022-07-27T18:22:42.425Z,1.00
2022-07-27T18:25:09.500Z,1.00
2022-07-27T18:27:36.971Z,0.80
2022-07-27T18:30:05.133Z,1.20
2022-07-27T18:32:31.582Z,1.40
2022-07-27T18:34:57.928Z,1.37
2022-07-27T18:37:24.306Z,1.60
2022-07-27T18:39:50.679Z,1.20
2022-07-27T18:42:17.102Z,1.90
2022-07-27T18:44:43.474Z,1.67
2022-07-27T18:47:09.773Z,1.60
2022-07-27T18:49:36.342Z,1.40
2022-07-27T18:52:03.047Z,2.07
2022-07-27T18:54:29.490Z,1.30
2022-07-27T18:56:56.149Z,0.90
2022-07-27T18:59:22.718Z,1.30
2022-07-27T19:01:49.258Z,1.13
2022-07-27T19:04:16.422Z,1.10
2022-07-27T19:06:44.283Z,1.50
2022-07-27T19:09:12.776Z,1.37
2022-07-27T19:11:39.566Z,1.63
2022-07-27T19:14:06.033Z,1.50
2022-07-27T19:16:34.230Z,0.93
2022-07-27T19:19:01.521Z,1.40
2022-07-27T19:21:27.852Z,1.53
2022-07-27T19:23:54.862Z,1.13
2022-07-27T19:26:21.222Z,1.00
2022-07-27T19:28:47.536Z,1.10
2022-07-27T19:31:23.295Z,1.63
2022-07-27T19:33:52.177Z,1.73
2022-07-27T19:36:19.703Z,1.43
2022-07-27T19:38:46.133Z,1.90
2022-07-27T19:41:12.447Z,1.50
2022-07-27T19:43:38.826Z,1.60
2022-07-27T19:46:05.341Z,1.97
2022-07-27T19:48:31.808Z,1.63
2022-07-27T19:51:02.136Z,1.40
2022-07-27T19:53:35.259Z,1.50
2022-07-27T19:56:01.636Z,1.57
2022-07-27T19:58:28.071Z,1.50
2022-07-27T20:00:55.597Z,1.40
2022-07-27T20:03:22.235Z,1.37
2022-07-27T20:05:48.905Z,1.50
2022-07-27T20:08:15.733Z,1.93
2022-07-27T20:10:42.616Z,1.30
2022-07-27T20:13:09.685Z,1.60
2022-07-27T20:15:36.761Z,1.20
2022-07-27T20:18:03.217Z,1.40
2022-07-27T20:20:29.709Z,1.40
2022-07-27T20:22:56.179Z,1.53
2022-07-27T20:25:22.846Z,2.00
2022-07-27T20:27:49.924Z,1.70
2022-07-27T20:30:17.920Z,1.30
2022-07-27T20:32:44.664Z,1.40
2022-07-27T20:35:11.119Z,1.70
2022-07-27T20:37:38.601Z,2.50
2022-07-27T20:40:05.730Z,2.20
2022-07-27T20:42:32.203Z,2.10
2022-07-27T20:44:58.849Z,2.50
2022-07-27T20:47:25.491Z,3.13
2022-07-27T20:49:51.860Z,2.20
2022-07-27T20:52:18.715Z,3.00
2022-07-27T20:54:45.442Z,3.10
2022-07-27T20:57:11.763Z,2.87
2022-07-27T20:59:38.211Z,2.13
2022-07-27T21:02:04.943Z,2.53
2022-07-27T21:04:31.387Z,2.47
2022-07-27T21:06:57.819Z,2.70
2022-07-27T21:09:24.286Z,2.60
2022-07-27T21:11:51.212Z,2.93
2022-07-27T21:14:17.609Z,3.10
2022-07-27T21:16:44.148Z,2.97
2022-07-27T21:19:11.047Z,3.27
2022-07-27T21:21:37.752Z,2.13
2022-07-27T21:24:17.377Z,3.40
2022-07-27T21:26:47.209Z,3.20
2022-07-27T21:29:15.418Z,2.40
2022-07-27T21:31:41.898Z,2.70
2022-07-27T21:34:08.857Z,2.80
2022-07-27T21:36:35.491Z,2.30
2022-07-27T21:39:01.882Z,2.43
2022-07-27T21:41:28.299Z,2.30
2022-07-27T21:43:54.852Z,2.40
2022-07-27T21:46:21.465Z,2.40
2022-07-27T21:48:48.644Z,3.10
2022-07-27T21:51:18.193Z,2.37
2022-07-27T21:53:48.311Z,2.20
2022-07-27T21:56:15.287Z,2.47
2022-07-27T21:58:45.008Z,2.47
2022-07-27T22:01:16.421Z,2.03
2022-07-27T22:03:43.976Z,2.33
2022-07-27T22:06:10.776Z,2.43
2022-07-27T22:08:37.507Z,1.80
2022-07-27T22:11:03.931Z,2.20
2022-07-27T22:13:30.504Z,2.23
2022-07-27T22:15:56.903Z,1.50
2022-07-27T22:18:23.426Z,2.13
2022-07-27T22:20:49.961Z,1.70
2022-07-27T22:23:16.441Z,1.60
2022-07-27T22:25:42.937Z,2.07
2022-07-27T22:28:09.378Z,1.67
2022-07-27T22:30:35.668Z,2.20
2022-07-27T22:33:02.170Z,2.00
2022-07-27T22:35:28.609Z,2.00
2022-07-27T22:37:54.941Z,2.47
2022-07-27T22:40:22.292Z,2.20
2022-07-27T22:42:48.715Z,1.77
2022-07-27T22:45:15.148Z,1.90
2022-07-27T22:47:42.411Z,1.90
2022-07-27T22:50:17.848Z,1.60
2022-07-27T22:52:44.751Z,2.33
2022-07-27T22:55:11.261Z,1.97
2022-07-27T22:57:37.782Z,1.67
2022-07-27T23:00:06.462Z,1.90
2022-07-27T23:02:34.266Z,1.87
2022-07-27T23:05:00.782Z,2.33
2022-07-27T23:07:27.510Z,1.50
2022-07-27T23:09:53.930Z,1.80
2022-07-27T23:12:23.651Z,2.30
2022-07-27T23:14:50.303Z,1.90
2022-07-27T23:17:16.712Z,2.60
2022-07-27T23:19:43.025Z,1.80
2022-07-27T23:22:10.870Z,2.40
2022-07-27T23:24:38.408Z,1.87
2022-07-27T23:27:07.612Z,1.40
2022-07-27T23:29:34.001Z,2.23
2022-07-27T23:32:00.594Z,1.60
2022-07-27T23:34:28.947Z,1.80
2022-07-27T23:36:55.543Z,2.10
2022-07-27T23:39:22.052Z,2.00
2022-07-27T23:41:50.163Z,1.77
2022-07-27T23:44:17.185Z,1.57
2022-07-27T23:46:43.852Z,1.97
2022-07-27T23:49:10.366Z,2.10
2022-07-27T23:51:36.998Z,1.90
2022-07-27T23:54:03.391Z,1.80
2022-07-27T23:56:29.758Z,2.33
2022-07-27T23:58:56.117Z,1.80
